Terminal Aerodrome Forecast
Issued by NWS

Home | Current Version | Previous Version | Text Only | Print | Product List | Glossary On
Versions: 1 2 3 4 5 6 7 8 9 10 11 12 13 14 15 16 17 18 19 20 21 22 23 24 25 26 27 28 29 30 31 32 33
000
FTUS43 KDTX 141100
TAFYIP
TAF
KYIP 141134Z 1412/1512 VRB04KT P6SM SCT060 BKN080
     FM141400 25006KT P6SM SCT080
     FM141900 24008KT P6SM BKN060 BKN080 PROB30 1421/1424 4SM TSRA
      OVC040CB
     FM150200 30007KT P6SM BKN080=

USA.gov is the U.S. government's official web portal to all federal, state and local government web resources and services.